Observation data for Seymour on 01/20/2019      Previous  Date  Next       Current Mesonet Observations  Soil Data  Daily Summary Page  Observations in Plain Language
KSE1 200600Z 04007KT M02/M06 A3037 RMK A01 T10191056  RH  076%=      5-min Rain = 0
KSE1 200605Z 04007KT M02/M06 A3037 RMK A01 T10191057  RH  075%=      5-min Rain = 0
KSE1 200610Z 05007KT M02/M06 A3036 RMK A01 T10191057  RH  075%=      5-min Rain = 0
KSE1 200615Z 05006KT M02/M06 A3035 RMK A01 T10211057  RH  077%=      5-min Rain = 0
KSE1 200620Z 06005KT M02/M06 A3036 RMK A01 T10211057  RH  076%=      5-min Rain = 0
KSE1 200625Z 06005KT M02/M06 A3036 RMK A01 T10221057  RH  077%=      5-min Rain = 0
KSE1 200630Z 06005KT M02/M06 A3037 RMK A01 T10231057  RH  078%=      5-min Rain = 0
KSE1 200635Z 07004KT M02/M06 A3036 RMK A01 T10241057  RH  078%=      5-min Rain = 0
KSE1 200640Z 06004KT M03/M06 A3037 RMK A01 T10251057  RH  079%=      5-min Rain = 0
KSE1 200645Z 06004KT M02/M06 A3036 RMK A01 T10241057  RH  079%=      5-min Rain = 0
KSE1 200650Z 06005KT M02/M06 A3036 RMK A01 T10241057  RH  079%=      5-min Rain = 0
KSE1 200655Z 06005KT M02/M06 A3036 RMK A01 T10241057  RH  078%=      5-min Rain = 0
KSE1 200700Z 05004KT M02/M06 A3036 RMK A01 T10241056  RH  079%=      5-min Rain = 0
KSE1 200705Z 06004KT M03/M06 A3036 RMK A01 T10261056  RH  080%=      5-min Rain = 0
KSE1 200710Z 08002KT M03/M06 A3036 RMK A01 T10271055  RH  081%=      5-min Rain = 0
KSE1 200715Z 08003KT M03/M06 A3036 RMK A01 T10271056  RH  080%=      5-min Rain = 0
KSE1 200720Z 07003KT M03/M06 A3036 RMK A01 T10261057  RH  079%=      5-min Rain = 0
KSE1 200725Z 08002KT M03/M06 A3037 RMK A01 T10271057  RH  079%=      5-min Rain = 0
KSE1 200730Z 09004KT M03/M06 A3036 RMK A01 T10291059  RH  080%=      5-min Rain = 0
KSE1 200735Z 08003KT M03/M06 A3036 RMK A01 T10291058  RH  080%=      5-min Rain = 0
KSE1 200740Z 08004KT M03/M06 A3036 RMK A01 T10291059  RH  080%=      5-min Rain = 0
KSE1 200745Z 09004KT M03/M06 A3035 RMK A01 T10291059  RH  080%=      5-min Rain = 0
KSE1 200750Z 11004KT M03/M06 A3036 RMK A01 T10311060  RH  081%=      5-min Rain = 0
KSE1 200755Z 09003KT M03/M06 A3036 RMK A01 T10341059  RH  083%=      5-min Rain = 0
KSE1 200800Z 09002KT M03/M06 A3037 RMK A01 T10311057  RH  083%=      5-min Rain = 0
KSE1 200805Z 12002KT M03/M06 A3037 RMK A01 T10321059  RH  082%=      5-min Rain = 0
KSE1 200810Z 13002KT M04/M06 A3037 RMK A01 T10351060  RH  082%=      5-min Rain = 0
KSE1 200815Z 11003KT M04/M06 A3037 RMK A01 T10351060  RH  083%=      5-min Rain = 0
KSE1 200820Z 09002KT M03/M06 A3037 RMK A01 T10341057  RH  084%=      5-min Rain = 0
KSE1 200825Z 13002KT M03/M06 A3037 RMK A01 T10341059  RH  083%=      5-min Rain = 0
KSE1 200830Z 16002KT M03/M06 A3037 RMK A01 T10341058  RH  084%=      5-min Rain = 0
KSE1 200835Z 17002KT M03/M06 A3037 RMK A01 T10311055  RH  084%=      5-min Rain = 0
KSE1 200840Z 18002KT M03/M06 A3037 RMK A01 T10311055  RH  084%=      5-min Rain = 0
KSE1 200845Z 18002KT M03/M06 A3036 RMK A01 T10301055  RH  083%=      5-min Rain = 0
KSE1 200850Z 19002KT M03/M06 A3037 RMK A01 T10311056  RH  083%=      5-min Rain = 0
KSE1 200855Z 18002KT M03/M06 A3037 RMK A01 T10331058  RH  083%=      5-min Rain = 0
KSE1 200900Z 20004KT M03/M06 A3037 RMK A01 T10341058  RH  084%=      5-min Rain = 0
KSE1 200905Z 20002KT M04/M06 A3037 RMK A01 T10361059  RH  085%=      5-min Rain = 0
KSE1 200910Z 22002KT M04/M06 A3038 RMK A01 T10371058  RH  086%=      5-min Rain = 0
KSE1 200915Z 22002KT M04/M06 A3037 RMK A01 T10371059  RH  085%=      5-min Rain = 0
KSE1 200920Z 22002KT M04/M06 A3038 RMK A01 T10351058  RH  084%=      5-min Rain = 0
KSE1 200925Z 22004KT M03/M06 A3038 RMK A01 T10331056  RH  084%=      5-min Rain = 0
KSE1 200930Z 21003KT M04/M06 A3038 RMK A01 T10361058  RH  085%=      5-min Rain = 0
KSE1 200935Z 22002KT M04/M06 A3038 RMK A01 T10361059  RH  085%=      5-min Rain = 0
KSE1 200940Z 22002KT M04/M06 A3037 RMK A01 T10391061  RH  085%=      5-min Rain = 0
KSE1 200945Z 21002KT M04/M06 A3037 RMK A01 T10381057  RH  087%=      5-min Rain = 0
KSE1 200950Z 21002KT M04/M06 A3037 RMK A01 T10361055  RH  087%=      5-min Rain = 0
KSE1 200955Z 22003KT M04/M05 A3037 RMK A01 T10351054  RH  087%=      5-min Rain = 0
KSE1 201000Z 22004KT M03/M05 A3037 RMK A01 T10341053  RH  087%=      5-min Rain = 0
KSE1 201005Z 23004KT M04/M06 A3037 RMK A01 T10371056  RH  087%=      5-min Rain = 0
KSE1 201010Z 23004KT M04/M06 A3037 RMK A01 T10391058  RH  087%=      5-min Rain = 0
KSE1 201015Z 23003KT M04/M06 A3037 RMK A01 T10371056  RH  087%=      5-min Rain = 0
KSE1 201020Z 23003KT M04/M06 A3037 RMK A01 T10361057  RH  086%=      5-min Rain = 0
KSE1 201025Z 22002KT M04/M06 A3036 RMK A01 T10351056  RH  086%=      5-min Rain = 0
KSE1 201030Z 20003KT M04/M06 A3036 RMK A01 T10351055  RH  086%=      5-min Rain = 0
KSE1 201035Z 18003KT M04/M06 A3036 RMK A01 T10351056  RH  086%=      5-min Rain = 0
KSE1 201040Z 18003KT M04/M06 A3036 RMK A01 T10391058  RH  087%=      5-min Rain = 0
KSE1 201045Z 17002KT M04/M06 A3036 RMK A01 T10401057  RH  088%=      5-min Rain = 0
KSE1 201050Z 18002KT M04/M05 A3036 RMK A01 T10391054  RH  089%=      5-min Rain = 0
KSE1 201055Z 18002KT M04/M05 A3035 RMK A01 T10381054  RH  089%=      5-min Rain = 0
KSE1 201100Z 18003KT M04/M05 A3035 RMK A01 T10391054  RH  089%=      5-min Rain = 0
KSE1 201105Z 17003KT M04/M06 A3036 RMK A01 T10411056  RH  090%=      5-min Rain = 0
KSE1 201110Z 17002KT M04/M06 A3035 RMK A01 T10421056  RH  090%=      5-min Rain = 0
KSE1 201115Z 17002KT M04/M06 A3035 RMK A01 T10411055  RH  090%=      5-min Rain = 0
KSE1 201120Z 18002KT M04/M06 A3035 RMK A01 T10411055  RH  090%=      5-min Rain = 0
KSE1 201125Z 18000KT M04/M06 A3035 RMK A01 T10421055  RH  090%=      5-min Rain = 0
KSE1 201130Z 17001KT M04/M06 A3035 RMK A01 T10421055  RH  091%=      5-min Rain = 0
KSE1 201135Z 15001KT M04/M06 A3035 RMK A01 T10421055  RH  091%=      5-min Rain = 0
KSE1 201140Z 16002KT M04/M06 A3034 RMK A01 T10431056  RH  091%=      5-min Rain = 0
KSE1 201145Z 17002KT M04/M05 A3035 RMK A01 T10421054  RH  092%=      5-min Rain = 0
KSE1 201150Z 18002KT M04/M05 A3035 RMK A01 T10411053  RH  092%=      5-min Rain = 0
KSE1 201155Z 19002KT M04/M05 A3035 RMK A01 T10411053  RH  092%=      5-min Rain = 0
KSE1 201200Z 18002KT M04/M05 A3034 RMK A01 T10421054  RH  091%=      5-min Rain = 0
KSE1 201205Z 19002KT M04/M05 A3034 RMK A01 T10411053  RH  092%=      5-min Rain = 0
KSE1 201210Z 19002KT M04/M05 A3035 RMK A01 T10401052  RH  092%=      5-min Rain = 0
KSE1 201215Z 19002KT M04/M05 A3035 RMK A01 T10401052  RH  092%=      5-min Rain = 0
KSE1 201220Z 20002KT M04/M05 A3034 RMK A01 T10411052  RH  092%=      5-min Rain = 0
KSE1 201225Z 21002KT M04/M05 A3034 RMK A01 T10411053  RH  092%=      5-min Rain = 0
KSE1 201230Z 20003KT M04/M05 A3034 RMK A01 T10421053  RH  092%=      5-min Rain = 0
KSE1 201235Z 19004KT M04/M05 A3034 RMK A01 T10411052  RH  092%=      5-min Rain = 0
KSE1 201240Z 18003KT M04/M05 A3034 RMK A01 T10411052  RH  092%=      5-min Rain = 0
KSE1 201245Z 18003KT M04/M05 A3034 RMK A01 T10411052  RH  092%=      5-min Rain = 0
KSE1 201250Z 17003KT M04/M05 A3034 RMK A01 T10411052  RH  092%=      5-min Rain = 0
KSE1 201255Z 17003KT M04/M05 A3035 RMK A01 T10401051  RH  092%=      5-min Rain = 0
KSE1 201300Z 15003KT M04/M05 A3035 RMK A01 T10401051  RH  092%=      5-min Rain = 0
KSE1 201305Z 16003KT M04/M05 A3035 RMK A01 T10401051  RH  092%=      5-min Rain = 0
KSE1 201310Z 17003KT M04/M05 A3035 RMK A01 T10401052  RH  092%=      5-min Rain = 0
KSE1 201315Z 16002KT M04/M05 A3035 RMK A01 T10401052  RH  091%=      5-min Rain = 0
KSE1 201320Z 16002KT M04/M05 A3035 RMK A01 T10401053  RH  091%=      5-min Rain = 0
KSE1 201325Z 15002KT M04/M05 A3035 RMK A01 T10381052  RH  090%=      5-min Rain = 0
KSE1 201330Z 14002KT M04/M06 A3035 RMK A01 T10401055  RH  090%=      5-min Rain = 0
KSE1 201335Z 15002KT M04/M06 A3035 RMK A01 T10421056  RH  090%=      5-min Rain = 0
KSE1 201340Z 15001KT M04/M06 A3035 RMK A01 T10401055  RH  090%=      5-min Rain = 0
KSE1 201345Z 15001KT M04/M06 A3036 RMK A01 T10411056  RH  089%=      5-min Rain = 0
KSE1 201350Z 14002KT M04/M06 A3035 RMK A01 T10411056  RH  089%=      5-min Rain = 0
KSE1 201355Z 13001KT M04/M06 A3035 RMK A01 T10421057  RH  089%=      5-min Rain = 0
KSE1 201400Z 13001KT M04/M06 A3036 RMK A01 T10411056  RH  090%=      5-min Rain = 0
KSE1 201405Z 15001KT M04/M06 A3036 RMK A01 T10411055  RH  090%=      5-min Rain = 0
KSE1 201410Z 18002KT M04/M05 A3035 RMK A01 T10401054  RH  090%=      5-min Rain = 0
KSE1 201415Z 17002KT M04/M05 A3035 RMK A01 T10391052  RH  091%=      5-min Rain = 0
KSE1 201420Z 17002KT M04/M05 A3035 RMK A01 T10381052  RH  090%=      5-min Rain = 0
KSE1 201425Z 15002KT M04/M05 A3035 RMK A01 T10371050  RH  090%=      5-min Rain = 0
KSE1 201430Z 17002KT M04/M05 A3036 RMK A01 T10351049  RH  090%=      5-min Rain = 0
KSE1 201435Z 18001KT M03/M05 A3036 RMK A01 T10311046  RH  090%=      5-min Rain = 0
KSE1 201440Z 17002KT M03/M04 A3035 RMK A01 T10271044  RH  088%=      5-min Rain = 0
KSE1 201445Z 17003KT M03/M04 A3035 RMK A01 T10251044  RH  087%=      5-min Rain = 0
KSE1 201450Z 17003KT M02/M04 A3035 RMK A01 T10221042  RH  086%=      5-min Rain = 0
KSE1 201455Z 18003KT M02/M04 A3035 RMK A01 T10191041  RH  085%=      5-min Rain = 0
KSE1 201500Z 18004KT M02/M04 A3035 RMK A01 T10181042  RH  084%=      5-min Rain = 0
KSE1 201505Z 18005KT M01/M04 A3035 RMK A01 T10141040  RH  083%=      5-min Rain = 0
KSE1 201510Z 18005KT M01/M04 A3035 RMK A01 T10111037  RH  083%=      5-min Rain = 0
KSE1 201515Z 19006KT M01/M04 A3035 RMK A01 T10091038  RH  081%=      5-min Rain = 0
KSE1 201520Z 20007KT M01/M04 A3035 RMK A01 T10071040  RH  079%=      5-min Rain = 0
KSE1 201525Z 20008KT M00/M04 A3035 RMK A01 T10041038  RH  078%=      5-min Rain = 0
KSE1 201530Z 20008KT M00/M04 A3035 RMK A01 T10021039  RH  076%=      5-min Rain = 0
KSE1 201535Z 20008KT M00/M04 A3035 RMK A01 T10021044  RH  073%=      5-min Rain = 0
KSE1 201540Z 19009KT 00/04 A3035 RMK A01 T00000-44  RH  072%=      5-min Rain = 0
KSE1 201545Z 20009KT 00/M05 A3035 RMK A01 T00021045  RH  071%=      5-min Rain = 0
KSE1 201550Z 19009KT 01/M04 A3035 RMK A01 T00051042  RH  071%=      5-min Rain = 0
KSE1 201555Z 19009KT 01/M05 A3034 RMK A01 T00051045  RH  070%=      5-min Rain = 0
KSE1 201600Z 19009KT 01/M05 A3034 RMK A01 T00061048  RH  067%=      5-min Rain = 0
KSE1 201605Z 18008KT 01/M05 A3033 RMK A01 T00081049  RH  066%=      5-min Rain = 0
KSE1 201610Z 17009KT 01/M06 A3033 RMK A01 T00101055  RH  062%=      5-min Rain = 0
KSE1 201615Z 18008KT 01/M06 A3034 RMK A01 T00101059  RH  060%=      5-min Rain = 0
KSE1 201620Z 18008KT 01/M06 A3034 RMK A01 T00121060  RH  059%=      5-min Rain = 0
KSE1 201625Z 18007KT 01/M06 A3034 RMK A01 T00131059  RH  059%=      5-min Rain = 0
KSE1 201630Z 19007KT 02/M06 A3034 RMK A01 T00161058  RH  058%=      5-min Rain = 0
KSE1 201635Z 17007KT 02/M06 A3034 RMK A01 T00171058  RH  058%=      5-min Rain = 0
KSE1 201640Z 18007KT 02/M06 A3034 RMK A01 T00191056  RH  058%=      5-min Rain = 0
KSE1 201645Z 17007KT 02/M06 A3034 RMK A01 T00211057  RH  056%=      5-min Rain = 0
KSE1 201650Z 17007KT 03/M06 A3034 RMK A01 T00261055  RH  055%=      5-min Rain = 0
KSE1 201655Z 17007KT 03/M06 A3034 RMK A01 T00251056  RH  055%=      5-min Rain = 0
KSE1 201700Z 17006KT 03/M06 A3034 RMK A01 T00281056  RH  054%=      5-min Rain = 0
KSE1 201705Z 17007KT 03/M05 A3033 RMK A01 T00301053  RH  054%=      5-min Rain = 0
KSE1 201710Z 17008KT 03/M05 A3033 RMK A01 T00311053  RH  054%=      5-min Rain = 0
KSE1 201715Z 17008KT 03/M05 A3033 RMK A01 T00321053  RH  054%=      5-min Rain = 0
KSE1 201720Z 17007KT 03/M05 A3032 RMK A01 T00321052  RH  054%=      5-min Rain = 0
KSE1 201725Z 17006KT 04/M05 A3032 RMK A01 T00361048  RH  054%=      5-min Rain = 0
KSE1 201730Z 17007KT 04/M05 A3031 RMK A01 T00381045  RH  055%=      5-min Rain = 0
KSE1 201735Z 17007KT 04/M05 A3031 RMK A01 T00401045  RH  054%=      5-min Rain = 0
KSE1 201740Z 17007KT 05/M04 A3031 RMK A01 T00451041  RH  054%=      5-min Rain = 0
KSE1 201745Z 16007KT 04/M04 A3031 RMK A01 T00441042  RH  054%=      5-min Rain = 0
KSE1 201750Z 16006KT 05/M04 A303 RMK A01 T00471039  RH  054%=      5-min Rain = 0
KSE1 201755Z 17005KT 05/M04 A303 RMK A01 T00481038  RH  054%=      5-min Rain = 0
KSE1 201800Z 17006KT 05/M03 A303 RMK A01 T00521034  RH  054%=      5-min Rain = 0
KSE1 201805Z 15007KT 06/M04 A303 RMK A01 T00561035  RH  052%=      5-min Rain = 0
KSE1 201810Z 16008KT 06/M03 A3029 RMK A01 T00581033  RH  052%=      5-min Rain = 0
KSE1 201815Z 15006KT 06/M03 A3029 RMK A01 T00581031  RH  053%=      5-min Rain = 0
KSE1 201820Z 15006KT 06/M03 A3029 RMK A01 T00641032  RH  051%=      5-min Rain = 0
KSE1 201825Z 16007KT 06/M04 A3028 RMK A01 T00591035  RH  051%=      5-min Rain = 0
KSE1 201830Z 13007KT 06/M03 A3028 RMK A01 T00621033  RH  051%=      5-min Rain = 0
KSE1 201835Z 14008KT 07/M03 A3027 RMK A01 T00651032  RH  050%=      5-min Rain = 0
KSE1 201840Z 15006KT 07/M03 A3027 RMK A01 T00661030  RH  051%=      5-min Rain = 0
KSE1 201845Z 14007KT 07/M03 A3026 RMK A01 T00651029  RH  051%=      5-min Rain = 0
KSE1 201850Z 14008KT 07/M03 A3026 RMK A01 T00681025  RH  052%=      5-min Rain = 0
KSE1 201855Z 16009KT 07/M03 A3025 RMK A01 T00701030  RH  049%=      5-min Rain = 0
KSE1 201900Z 15008KT 07/M03 A3025 RMK A01 T00721033  RH  047%=      5-min Rain = 0
KSE1 201905Z 17008KT 07/M03 A3025 RMK A01 T00741032  RH  047%=      5-min Rain = 0
KSE1 201910Z 14009KT 07/M03 A3025 RMK A01 T00721034  RH  047%=      5-min Rain = 0
KSE1 201915Z 15008KT 07/M03 A3024 RMK A01 T00721032  RH  048%=      5-min Rain = 0
KSE1 201920Z 14008KT 08/M03 A3024 RMK A01 T00761030  RH  047%=      5-min Rain = 0
KSE1 201925Z 14009KT 08/M03 A3023 RMK A01 T00801033  RH  045%=      5-min Rain = 0
KSE1 201930Z 15009KT 08/M04 A3023 RMK A01 T00761037  RH  045%=      5-min Rain = 0
KSE1 201935Z 16008KT 08/M04 A3022 RMK A01 T00811035  RH  044%=      5-min Rain = 0
KSE1 201940Z 15008KT 08/M03 A3022 RMK A01 T00831034  RH  044%=      5-min Rain = 0
KSE1 201945Z 15008KT 09/M03 A3022 RMK A01 T00861030  RH  044%=      5-min Rain = 0
KSE1 201950Z 15009KT 09/M03 A3021 RMK A01 T00901028  RH  044%=      5-min Rain = 0
KSE1 201955Z 14009KT 09/M03 A3021 RMK A01 T00911031  RH  042%=      5-min Rain = 0
KSE1 202000Z 16009KT 09/M04 A302 RMK A01 T00901035  RH  041%=      5-min Rain = 0
KSE1 202005Z 15008KT 09/M03 A302 RMK A01 T00911031  RH  042%=      5-min Rain = 0
KSE1 202010Z 15008KT 09/M03 A302 RMK A01 T00941031  RH  042%=      5-min Rain = 0
KSE1 202015Z 15009KT 10/M03 A3019 RMK A01 T00981029  RH  041%=      5-min Rain = 0
KSE1 202020Z 15008KT 09/M03 A3019 RMK A01 T00941032  RH  041%=      5-min Rain = 0
KSE1 202025Z 15009KT 09/M03 A3019 RMK A01 T00921032  RH  042%=      5-min Rain = 0
KSE1 202030Z 16009KT 10/M03 A3019 RMK A01 T00981029  RH  041%=      5-min Rain = 0
KSE1 202035Z 16009KT 10/M03 A3019 RMK A01 T00991031  RH  040%=      5-min Rain = 0
KSE1 202040Z 16009KT 10/M03 A3019 RMK A01 T01001028  RH  041%=      5-min Rain = 0
KSE1 202045Z 15009KT 10/M03 A3018 RMK A01 T01031027  RH  040%=      5-min Rain = 0
KSE1 202050Z 15010KT 10/M03 A3018 RMK A01 T01011027  RH  041%=      5-min Rain = 0
KSE1 202055Z 15010G15KT 11/M03 A3018 RMK A01 T01051026  RH  040%=      5-min Rain = 0
KSE1 202100Z 15011KT 10/M03 A3017 RMK A01 T01041030  RH  039%=      5-min Rain = 0
KSE1 202105Z 16010G15KT 11/M03 A3017 RMK A01 T01081028  RH  039%=      5-min Rain = 0
KSE1 202110Z 16011KT 11/M03 A3016 RMK A01 T01121029  RH  037%=      5-min Rain = 0
KSE1 202115Z 16011KT 11/M03 A3016 RMK A01 T01111029  RH  038%=      5-min Rain = 0
KSE1 202120Z 16011G16KT 11/M03 A3016 RMK A01 T01101028  RH  038%=      5-min Rain = 0
KSE1 202125Z 16010KT 11/M03 A3016 RMK A01 T01101027  RH  039%=      5-min Rain = 0
KSE1 202130Z 16011KT 11/M03 A3015 RMK A01 T01111028  RH  038%=      5-min Rain = 0
KSE1 202135Z 15011KT 11/M03 A3015 RMK A01 T01121026  RH  038%=      5-min Rain = 0
KSE1 202140Z 15012KT 11/M03 A3014 RMK A01 T01111027  RH  038%=      5-min Rain = 0
KSE1 202145Z 16011KT 11/M03 A3014 RMK A01 T01081026  RH  039%=      5-min Rain = 0
KSE1 202150Z 16010G15KT 12/M02 A3014 RMK A01 T01161021  RH  039%=      5-min Rain = 0
KSE1 202155Z 15012KT 12/M02 A3014 RMK A01 T01161023  RH  038%=      5-min Rain = 0
KSE1 202200Z 15010KT 12/M02 A3014 RMK A01 T01161022  RH  038%=      5-min Rain = 0
KSE1 202205Z 16010KT 11/M02 A3014 RMK A01 T01131023  RH  039%=      5-min Rain = 0
KSE1 202210Z 15010KT 11/M02 A3014 RMK A01 T01091023  RH  040%=      5-min Rain = 0
KSE1 202215Z 17010KT 11/M02 A3014 RMK A01 T01091022  RH  040%=      5-min Rain = 0
KSE1 202220Z 17010KT 11/M02 A3014 RMK A01 T01131021  RH  039%=      5-min Rain = 0
KSE1 202225Z 16010KT 12/M02 A3014 RMK A01 T01151021  RH  039%=      5-min Rain = 0
KSE1 202230Z 15011KT 11/M02 A3014 RMK A01 T01141021  RH  039%=      5-min Rain = 0
KSE1 202235Z 15010KT 11/M02 A3014 RMK A01 T01101022  RH  040%=      5-min Rain = 0
KSE1 202240Z 14010KT 11/M02 A3014 RMK A01 T01091022  RH  040%=      5-min Rain = 0
KSE1 202245Z 15010KT 11/M02 A3014 RMK A01 T01081020  RH  041%=      5-min Rain = 0
KSE1 202250Z 14009KT 11/M02 A3013 RMK A01 T01101016  RH  042%=      5-min Rain = 0
KSE1 202255Z 14011KT 11/M02 A3013 RMK A01 T01111018  RH  041%=      5-min Rain = 0
KSE1 202300Z 14009KT 11/M02 A3013 RMK A01 T01121017  RH  041%=      5-min Rain = 0
KSE1 202305Z 14009KT 11/M02 A3013 RMK A01 T01101018  RH  041%=      5-min Rain = 0
KSE1 202310Z 14009KT 11/M02 A3013 RMK A01 T01111016  RH  041%=      5-min Rain = 0
KSE1 202315Z 13010KT 11/M01 A3013 RMK A01 T01091014  RH  043%=      5-min Rain = 0
KSE1 202320Z 14011KT 11/M02 A3013 RMK A01 T01071020  RH  041%=      5-min Rain = 0
KSE1 202325Z 14009KT 11/M02 A3012 RMK A01 T01051018  RH  043%=      5-min Rain = 0
KSE1 202330Z 13008KT 10/M01 A3012 RMK A01 T01011014  RH  045%=      5-min Rain = 0
KSE1 202335Z 14009KT 10/M02 A3012 RMK A01 T01021019  RH  043%=      5-min Rain = 0
KSE1 202340Z 14009KT 10/M02 A3012 RMK A01 T01001018  RH  044%=      5-min Rain = 0
KSE1 202345Z 13008KT 10/M02 A3012 RMK A01 T00961016  RH  046%=      5-min Rain = 0
KSE1 202350Z 13007KT 09/M01 A3012 RMK A01 T00911014  RH  048%=      5-min Rain = 0
KSE1 202355Z 13007KT 09/M01 A3012 RMK A01 T00861013  RH  050%=      5-min Rain = 0
KSE1 210000Z 13007KT 08/M01 A3012 RMK A01 T00811012  RH  052%=      5-min Rain = 0
KSE1 210005Z 12007KT 08/M01 A3012 RMK A01 T00781011  RH  054%=      5-min Rain = 0
KSE1 210010Z 12007KT 08/M01 A3012 RMK A01 T00771011  RH  054%=      5-min Rain = 0
KSE1 210015Z 11007KT 07/M01 A3012 RMK A01 T00711009  RH  057%=      5-min Rain = 0
KSE1 210020Z 11007KT 07/M01 A3011 RMK A01 T00651008  RH  060%=      5-min Rain = 0
KSE1 210025Z 11006KT 06/M01 A3011 RMK A01 T00631006  RH  062%=      5-min Rain = 0
KSE1 210030Z 12006KT 06/M01 A3011 RMK A01 T00611006  RH  063%=      5-min Rain = 0
KSE1 210035Z 12007KT 06/M01 A3011 RMK A01 T00571008  RH  064%=      5-min Rain = 0
KSE1 210040Z 12006KT 06/M01 A3011 RMK A01 T00571006  RH  064%=      5-min Rain = 0
KSE1 210045Z 12006KT 06/M01 A3011 RMK A01 T00561005  RH  065%=      5-min Rain = 0
KSE1 210050Z 11006KT 06/M01 A3011 RMK A01 T00551006  RH  065%=      5-min Rain = 0
KSE1 210055Z 10006KT 05/M01 A3011 RMK A01 T00541006  RH  066%=      5-min Rain = 0
KSE1 210100Z 09006KT 06/M01 A3011 RMK A01 T00571005  RH  065%=      5-min Rain = 0
KSE1 210105Z 09006KT 06/M00 A3011 RMK A01 T00581001  RH  066%=      5-min Rain = 0
KSE1 210110Z 09006KT 06/00 A3011 RMK A01 T00580003  RH  068%=      5-min Rain = 0
KSE1 210115Z 09006KT 06/01 A3011 RMK A01 T00570005  RH  070%=      5-min Rain = 0
KSE1 210120Z 09007KT 06/01 A3011 RMK A01 T00550006  RH  071%=      5-min Rain = 0
KSE1 210125Z 10008KT 05/01 A3011 RMK A01 T00530006  RH  073%=      5-min Rain = 0
KSE1 210130Z 10007KT 05/01 A3011 RMK A01 T00500005  RH  074%=      5-min Rain = 0
KSE1 210135Z 10007KT 05/01 A3011 RMK A01 T00480005  RH  075%=      5-min Rain = 0
KSE1 210140Z 10008KT 05/00 A3011 RMK A01 T00470003  RH  074%=      5-min Rain = 0
KSE1 210145Z 11007KT 05/00 A301 RMK A01 T00470002  RH  073%=      5-min Rain = 0
KSE1 210150Z 11006KT 05/00 A301 RMK A01 T00450000  RH  073%=      5-min Rain = 0
KSE1 210155Z 11005KT 05/M00 A301 RMK A01 T00451001  RH  073%=      5-min Rain = 0
KSE1 210200Z 12005KT 05/M00 A301 RMK A01 T00451002  RH  072%=      5-min Rain = 0
KSE1 210205Z 12005KT 05/M00 A301 RMK A01 T00451003  RH  072%=      5-min Rain = 0
KSE1 210210Z 12006KT 05/M00 A301 RMK A01 T00451003  RH  072%=      5-min Rain = 0
KSE1 210215Z 12006KT 05/M00 A301 RMK A01 T00491003  RH  070%=      5-min Rain = 0
KSE1 210220Z 13006KT 05/M00 A301 RMK A01 T00481004  RH  070%=      5-min Rain = 0
KSE1 210225Z 13008KT 05/M01 A3009 RMK A01 T00521006  RH  067%=      5-min Rain = 0
KSE1 210230Z 14008KT 06/M01 A3009 RMK A01 T00571009  RH  063%=      5-min Rain = 0
KSE1 210235Z 14009KT 06/M01 A3009 RMK A01 T00611012  RH  060%=      5-min Rain = 0
KSE1 210240Z 14009KT 06/M02 A3009 RMK A01 T00641015  RH  058%=      5-min Rain = 0
KSE1 210245Z 15009KT 06/M02 A3009 RMK A01 T00641016  RH  057%=      5-min Rain = 0
KSE1 210250Z 15010KT 07/M02 A3008 RMK A01 T00651017  RH  056%=      5-min Rain = 0
KSE1 210255Z 14012KT 07/M02 A3008 RMK A01 T00661019  RH  055%=      5-min Rain = 0
KSE1 210300Z 14011KT 07/M02 A3008 RMK A01 T00661019  RH  055%=      5-min Rain = 0
KSE1 210305Z 14011KT 07/M02 A3008 RMK A01 T00661020  RH  055%=      5-min Rain = 0
KSE1 210310Z 15012KT 07/M02 A3008 RMK A01 T00661020  RH  055%=      5-min Rain = 0
KSE1 210315Z 15012G17KT 07/M02 A3008 RMK A01 T00661021  RH  054%=      5-min Rain = 0
KSE1 210320Z 15013KT 07/M02 A3008 RMK A01 T00661021  RH  054%=      5-min Rain = 0
KSE1 210325Z 15013G20KT 07/M02 A3007 RMK A01 T00651022  RH  054%=      5-min Rain = 0
KSE1 210330Z 15013KT 07/M02 A3007 RMK A01 T00661022  RH  054%=      5-min Rain = 0
KSE1 210335Z 15015G20KT 07/M02 A3007 RMK A01 T00661022  RH  054%=      5-min Rain = 0
KSE1 210340Z 15014KT 07/M02 A3007 RMK A01 T00651022  RH  054%=      5-min Rain = 0
KSE1 210345Z 15014KT 07/M02 A3007 RMK A01 T00651022  RH  054%=      5-min Rain = 0
KSE1 210350Z 15015KT 07/M02 A3006 RMK A01 T00651022  RH  054%=      5-min Rain = 0
KSE1 210355Z 15015G20KT 07/M02 A3006 RMK A01 T00651023  RH  054%=      5-min Rain = 0
KSE1 210400Z 15014G20KT 06/M02 A3006 RMK A01 T00641023  RH  054%=      5-min Rain = 0
KSE1 210405Z 15015G20KT 06/M02 A3006 RMK A01 T00641023  RH  054%=      5-min Rain = 0
KSE1 210410Z 15015G20KT 07/M02 A3006 RMK A01 T00651023  RH  054%=      5-min Rain = 0
KSE1 210415Z 15015G20KT 07/M02 A3005 RMK A01 T00651023  RH  054%=      5-min Rain = 0
KSE1 210420Z 15015G21KT 07/M02 A3005 RMK A01 T00661024  RH  053%=      5-min Rain = 0
KSE1 210425Z 15016G21KT 07/M02 A3005 RMK A01 T00651024  RH  053%=      5-min Rain = 0
KSE1 210430Z 15016G21KT 07/M03 A3005 RMK A01 T00651025  RH  053%=      5-min Rain = 0
KSE1 210435Z 15015KT 06/M02 A3005 RMK A01 T00641024  RH  054%=      5-min Rain = 0
KSE1 210440Z 15015G21KT 06/M02 A3005 RMK A01 T00641024  RH  054%=      5-min Rain = 0
KSE1 210445Z 15015G20KT 06/M02 A3005 RMK A01 T00631024  RH  054%=      5-min Rain = 0
KSE1 210450Z 15015G21KT 06/M02 A3005 RMK A01 T00621024  RH  054%=      5-min Rain = 0
KSE1 210455Z 15015KT 06/M02 A3005 RMK A01 T00611024  RH  055%=      5-min Rain = 0
KSE1 210500Z 15015KT 06/M02 A3005 RMK A01 T00611024  RH  055%=      5-min Rain = 0
KSE1 210505Z 16016G22KT 06/M02 A3005 RMK A01 T00611024  RH  055%=      5-min Rain = 0
KSE1 210510Z 16016G21KT 06/M02 A3005 RMK A01 T00611024  RH  055%=      5-min Rain = 0
KSE1 210515Z 15016G21KT 06/M02 A3005 RMK A01 T00601024  RH  055%=      5-min Rain = 0
KSE1 210520Z 15014G21KT 06/M02 A3005 RMK A01 T00601024  RH  055%=      5-min Rain = 0
KSE1 210525Z 15015G21KT 06/M02 A3005 RMK A01 T00591023  RH  056%=      5-min Rain = 0
KSE1 210530Z 15013G18KT 06/M02 A3005 RMK A01 T00571023  RH  057%=      5-min Rain = 0
KSE1 210535Z 15015G20KT 06/M02 A3005 RMK A01 T00581023  RH  057%=      5-min Rain = 0
KSE1 210540Z 15015G20KT 06/M02 A3005 RMK A01 T00581023  RH  056%=      5-min Rain = 0
KSE1 210545Z 15014G19KT 06/M02 A3005 RMK A01 T00561023  RH  057%=      5-min Rain = 0
KSE1 210550Z 15014G20KT 06/M02 A3005 RMK A01 T00561023  RH  057%=      5-min Rain = 0
KSE1 210555Z 15015G22KT 06/M02 A3005 RMK A01 T00561022  RH  058%=      5-min Rain = 0

Page generated in 0.0151 seconds.